Sandspit Airport
CYZP : now visible

Airfield :











YOU CAN JOIN US ON...

 
LOGIN :

Register | Disclaimer

   EN    FR    IT 

 









Legend :    VFR   Marginal VFR   IFR   Intensive IFR   Very Intensive IFR
Visi :
Ceiling :
>= 8 km
>= 3000ft
5 to 8 km
1000 to 3000 ft
1500m to 5 km
500 to 1000 ft
800 to 1500m
200 to 500 ft
< 800m
< 200 ft
Symbols :   Thunderstorms  Fog  Heavy snow  Heavy precipitations  Wind > 20 kt






- Airport Elevation : 21 ft
- IATA code : YZP


CYZP - Sandspit

CURRENT METAR :
  • 141224Z AUTO 27006KT 5SM BR OVC005 03/03 A3000 RMK SLP161

EXPIRED METARs :
  • 141203Z AUTO 27006KT 9SM BKN005 BKN009 03/02 A3000 RMK SLP161
  • 141137Z AUTO 28004KT 9SM SCT003 BKN007 02/02 A3000 RMK SLP161
  • 141121Z AUTO 27005KT 6SM BR BKN003 OVC007 02/02 A3000 RMK SLP161
  • 141111Z AUTO 28005KT 4SM BR BKN003 02/02 A3000 RMK SLP161
  • 141103Z AUTO 27005KT 9SM BKN003 03/02 A3000 RMK SLP161
  • 141022Z AUTO 29005KT 9SM SCT002 02/02 A2999 RMK SLP159
  • 141017Z AUTO 29004KT 2SM BR BKN002 02/02 A2999 RMK SLP159
  • 141000Z AUTO 28005KT 3/4SM BR VV002 02/02 A2999 RMK SLP159

TAF TAF CYZP
Valid from the 14 at 07:00 until the 14 at 19:00 UTC


140642Z 1407/1419 24006KT P6SM FEW003 SCT020
TEMPO 1407/1419 1/2SM -SHRA FG BKN003 RMK FCST BASED ON AUTO OBS. NXT FCST BY 141300Z



MET'MAP, your aeronautical weather chart ! - Copyright ORBIFLY December 2007 - Disclaimer

ORBIFLY MET'MAP TEAM :

Programming & Development : Alexandra Zaïnal
Concept & original design : Baudouin d'Aumeries
Assistance for programming : Marc-Olivier Méhu
Technical & hardware support : Manuel Goepfert

Contact : metmap@orbifly.com




SOURCES & CREDITS :

   NOAA       Earth
Advisory